Time;durP1;ratioP1;P1;durP2;ratioP2;P2;SDS_P1;SDS_P2;PMS_P1;PMS_P2;Temp;Humidity;BMP_temperature;BMP_pressure;BME280_temperature;BME280_humidity;BME280_pressure;Samples;Min_cycle;Max_cycle;Signal;HPM_P1;HPM_P2
2023/01/17 05:16:30;;;;;;;7.43;1.88;;;14.80;82.50;;;;;;5117544;27;20434;-67
2023/01/17 05:18:56;;;;;;;10.27;1.80;;;14.30;99.90;;;;;;5113593;28;20095;-66
2023/01/17 05:21:23;;;;;;;4.63;1.80;;;14.80;81.40;;;;;;5118933;27;20043;-68
2023/01/17 05:23:49;;;;;;;5.18;1.25;;;13.80;80.10;;;;;;5112568;27;20143;-64
2023/01/17 05:26:16;;;;;;;4.05;1.52;;;14.90;99.90;;;;;;5114135;28;20162;-65
2023/01/17 05:28:42;;;;;;;6.65;1.80;;;14.80;99.90;;;;;;5115639;27;20057;-66
2023/01/17 05:31:09;;;;;;;5.95;1.50;;;14.60;99.90;;;;;;5114490;27;20051;-65
2023/01/17 05:33:35;;;;;;;4.53;1.13;;;14.90;80.80;;;;;;5115415;28;20420;-68
2023/01/17 05:36:02;;;;;;;6.72;1.60;;;15.00;99.90;;;;;;5112400;27;20071;-68
2023/01/17 05:38:29;;;;;;;6.57;1.48;;;14.70;79.30;;;;;;5113594;28;20057;-68
2023/01/17 05:40:57;;;;;;;8.07;1.50;;;14.90;99.90;;;;;;5111113;28;20041;-67
2023/01/17 05:43:24;;;;;;;7.07;1.98;;;;;;;;;;5115943;28;20062;-69
2023/01/17 05:45:50;;;;;;;6.80;1.45;;;15.00;99.90;;;;;;5114521;28;20049;-66
2023/01/17 05:48:17;;;;;;;4.07;1.50;;;;;;;;;;5114675;27;20065;-67
2023/01/17 05:50:43;;;;;;;6.10;1.17;;;14.80;99.90;;;;;;5115129;28;20056;-66
2023/01/17 05:53:12;;;;;;;8.45;1.42;;;14.80;99.90;;;;;;5112428;28;20381;-66
2023/01/17 05:55:39;;;;;;;12.07;1.80;;;14.90;99.90;;;;;;5118233;27;20061;-66
2023/01/17 05:58:07;;;;;;;7.82;1.65;;;15.80;86.60;;;;;;5120841;28;20041;-65
2023/01/17 06:00:34;;;;;;;11.73;1.45;;;14.50;86.60;;;;;;5111852;27;20097;-65
2023/01/17 06:03:01;;;;;;;4.13;1.40;;;13.60;87.10;;;;;;5113073;27;20041;-67
2023/01/17 06:05:29;;;;;;;14.45;1.65;;;14.20;87.20;;;;;;5117923;27;20505;-68
2023/01/17 06:07:55;;;;;;;7.82;1.70;;;14.80;99.90;;;;;;5116518;27;20058;-63
2023/01/17 06:10:23;;;;;;;6.38;1.40;;;14.20;86.80;;;;;;5108526;28;20039;-67
2023/01/17 06:12:49;;;;;;;5.57;1.52;;;14.10;95.60;;;;;;5115947;28;20594;-65
2023/01/17 06:15:17;;;;;;;5.00;1.27;;;13.60;99.90;;;;;;5114356;27;20189;-66
2023/01/17 06:17:43;;;;;;;3.22;1.70;;;13.80;99.90;;;;;;5115594;27;20052;-65
2023/01/17 06:20:12;;;;;;;4.10;1.30;;;14.80;99.90;;;;;;5113605;28;20040;-64
2023/01/17 06:22:38;;;;;;;7.00;1.27;;;14.30;99.90;;;;;;5112568;28;20036;-67
2023/01/17 06:25:05;;;;;;;6.45;1.00;;;14.00;99.90;;;;;;5112740;28;20101;-65
2023/01/17 06:27:32;;;;;;;6.88;1.50;;;;;;;;;;5097862;28;20102;-63
2023/01/17 06:29:58;;;;;;;3.17;1.05;;;14.50;99.90;;;;;;5099165;28;20150;-65
2023/01/17 06:32:24;;;;;;;;;;;14.10;84.10;;;;;;5098456;28;20088;-65
2023/01/17 06:34:51;;;;;;;6.97;1.17;;;13.50;99.90;;;;;;5099562;28;20006;-65
2023/01/17 06:37:17;;;;;;;;;;;14.10;83.10;;;;;;5105225;28;20083;-65
2023/01/17 06:39:43;;;;;;;6.13;1.15;;;14.20;99.90;;;;;;5097969;28;20334;-68
2023/01/17 06:42:09;;;;;;;6.20;1.30;;;14.20;99.90;;;;;;5099572;28;20059;-64
2023/01/17 06:44:35;;;;;;;;;;;14.20;83.20;;;;;;5101933;28;20135;-64
2023/01/17 06:47:02;;;;;;;6.38;1.30;;;;;;;;;;5095709;28;20336;-65
2023/01/17 06:49:28;;;;;;;4.15;0.90;;;14.10;99.90;;;;;;5099312;28;20059;-65
2023/01/17 06:51:55;;;;;;;4.47;1.10;;;14.20;99.90;;;;;;5095355;28;20046;-64
2023/01/17 06:54:21;;;;;;;;;;;14.10;84.30;;;;;;5094872;28;20065;-66
2023/01/17 06:56:47;;;;;;;5.88;1.20;;;13.60;99.90;;;;;;5100743;28;19936;-65
2023/01/17 06:59:13;;;;;;;;;;;14.10;85.20;;;;;;5097038;28;20528;-66
2023/01/17 07:01:40;;;;;;;3.70;1.23;;;13.40;99.90;;;;;;5101366;28;19930;-65
2023/01/17 07:04:06;;;;;;;9.88;1.00;;;13.90;99.50;;;;;;5102405;28;20068;-67
2023/01/17 07:06:35;;;;;;;6.43;1.45;;;14.80;99.90;;;;;;5102492;28;20064;-65
2023/01/17 07:09:03;;;;;;;9.13;1.20;;;14.50;99.90;;;;;;5100576;28;20070;-66
2023/01/17 07:11:29;;;;;;;17.13;1.13;;;14.80;99.90;;;;;;5095331;28;20055;-66
2023/01/17 07:13:56;;;;;;;17.52;7.18;;;13.90;99.90;;;;;;5097144;28;20105;-66
2023/01/17 07:16:22;;;;;;;;;;;14.10;83.90;;;;;;5096122;28;20139;-65
2023/01/17 07:18:50;;;;;;;5.25;0.80;;;;;;;;;;5101330;28;19935;-66
2023/01/17 07:21:16;;;;;;;3.40;0.73;;;14.20;99.90;;;;;;5104582;27;20084;-65
2023/01/17 07:23:42;;;;;;;;;;;14.00;84.40;;;;;;5098663;28;20531;-66
2023/01/17 07:26:08;;;;;;;3.80;0.90;;;14.50;99.90;;;;;;5092911;28;19931;-66
2023/01/17 07:28:35;;;;;;;2.13;0.65;;;14.00;99.70;;;;;;5093938;28;20511;-66
2023/01/17 07:31:07;;;;;;;;;;;14.00;84.60;;;;;;5093616;28;20041;-65
2023/01/17 07:33:34;;;;;;;2.10;0.50;;;13.80;99.90;;;;;;5092810;28;20301;-64
2023/01/17 07:36:06;;;;;;;10.15;1.15;;;13.70;99.90;;;;;;5090273;28;20082;-64
2023/01/17 07:38:33;;;;;;;4.28;1.00;;;14.00;84.50;;;;;;5087063;28;20043;-63
2023/01/17 07:40:59;;;;;;;8.02;1.10;;;;;;;;;;5087149;28;20076;-65
2023/01/17 07:43:26;;;;;;;12.50;1.27;;;14.00;99.90;;;;;;5090971;28;20089;-66
2023/01/17 07:45:53;;;;;;;5.70;0.90;;;;;;;;;;5091294;28;20575;-68
2023/01/17 07:48:22;;;;;;;3.60;0.80;;;14.00;84.70;;;;;;5093250;28;20098;-66
2023/01/17 07:50:54;;;;;;;5.50;0.82;;;14.10;99.90;;;;;;5093110;28;20489;-65
2023/01/17 07:53:23;;;;;;;3.90;0.82;;;14.00;84.00;;;;;;5094118;28;20061;-69
2023/01/17 07:55:50;;;;;;;5.25;0.60;;;14.60;99.90;;;;;;5093331;28;20057;-66
2023/01/17 07:58:17;;;;;;;1.52;0.70;;;13.70;99.90;;;;;;5094401;28;20050;-66
2023/01/17 08:00:44;;;;;;;2.63;0.60;;;14.20;99.90;;;;;;5096139;28;20060;-65
2023/01/17 08:03:13;;;;;;;1.38;0.73;;;14.00;99.30;;;;;;5090370;28;20050;-66
2023/01/17 08:05:40;;;;;;;2.45;0.50;;;14.60;99.40;;;;;;5091922;28;20046;-67
2023/01/17 08:08:07;;;;;;;7.07;0.80;;;13.40;99.50;;;;;;5094793;28;20134;-65
2023/01/17 08:10:33;;;;;;;2.22;0.77;;;14.10;98.40;;;;;;5094469;28;20045;-68
2023/01/17 08:13:00;;;;;;;0.93;0.38;;;;;;;;;;5091256;28;20050;-67
2023/01/17 08:15:26;;;;;;;3.95;0.70;;;14.20;99.90;;;;;;5091370;28;20175;-66
2023/01/17 08:17:53;;;;;;;1.13;0.40;;;14.00;99.90;;;;;;5091102;28;20490;-66
2023/01/17 08:20:20;;;;;;;3.53;0.68;;;13.50;82.00;;;;;;5090756;28;20045;-68
2023/01/17 08:22:47;;;;;;;2.33;0.60;;;13.90;99.90;;;;;;5089175;28;20054;-66
2023/01/17 08:25:13;;;;;;;;;;;13.90;82.20;;;;;;5089906;28;20043;-66
2023/01/17 08:27:39;;;;;;;3.95;0.95;;;13.90;79.90;;;;;;5093293;28;20091;-67
2023/01/17 08:30:07;;;;;;;7.78;0.70;;;14.00;81.00;;;;;;5091473;28;20041;-68
2023/01/17 08:32:34;;;;;;;14.55;1.13;;;14.40;81.90;;;;;;5088868;28;20154;-63
2023/01/17 08:35:00;;;;;;;;;;;14.10;78.20;;;;;;5089348;28;20067;-66
2023/01/17 08:37:26;;;;;;;11.23;1.30;;;13.80;97.00;;;;;;5091101;28;19968;-63
2023/01/17 08:39:52;;;;;;;;;;;14.20;77.20;;;;;;5092442;28;20084;-62
2023/01/17 08:42:19;;;;;;;4.47;0.77;;;14.20;99.50;;;;;;5090185;28;19973;-64
2023/01/17 08:44:45;;;;;;;;;;;14.20;78.90;;;;;;5090236;28;20073;-65
2023/01/17 08:47:11;;;;;;;5.38;0.88;;;14.00;99.90;;;;;;5091358;28;19961;-65
2023/01/17 08:49:38;;;;;;;5.13;1.00;;;;;;;;;;5089638;28;20440;-65
2023/01/17 08:52:04;;;;;;;4.72;0.88;;;14.00;99.90;;;;;;5090234;28;20120;-65
2023/01/17 08:54:31;;;;;;;2.15;0.93;;;13.00;79.30;;;;;;5090085;28;20454;-65
2023/01/17 08:56:57;;;;;;;5.35;0.90;;;13.80;99.60;;;;;;5091540;28;20133;-67
2023/01/17 08:59:23;;;;;;;;;;;13.90;80.80;;;;;;5094866;28;20071;-66
2023/01/17 09:01:51;;;;;;;8.98;1.23;;;13.60;99.90;;;;;;5089147;28;19969;-65
2023/01/17 09:04:17;;;;;;;11.48;1.00;;;13.70;84.80;;;;;;5090748;28;20052;-67
2023/01/17 09:06:47;;;;;;;;;;;13.80;80.20;;;;;;5088841;28;20483;-65
2023/01/17 09:09:15;;;;;;;10.43;0.90;;;13.70;98.40;;;;;;5089666;28;19943;-65
2023/01/17 09:11:42;;;;;;;12.07;1.10;;;13.60;99.90;;;;;;5090745;28;20066;-66
2023/01/17 09:14:11;;;;;;;8.20;0.98;;;13.50;81.00;;;;;;5088645;28;20100;-64
2023/01/17 09:16:37;;;;;;;6.15;1.05;;;13.10;99.90;;;;;;5088307;28;20065;-65
2023/01/17 09:19:03;;;;;;;;;;;13.50;82.80;;;;;;5090094;28;20201;-65
2023/01/17 09:21:30;;;;;;;2.92;0.80;;;13.40;99.90;;;;;;5088807;28;19954;-65
2023/01/17 09:23:56;;;;;;;6.57;1.00;;;12.80;99.90;;;;;;5089773;28;20080;-64
2023/01/17 09:26:27;;;;;;;;;;;13.40;83.30;;;;;;5090181;28;20065;-65
2023/01/17 09:28:54;;;;;;;3.53;1.15;;;13.30;81.50;;;;;;5088506;28;19959;-65
2023/01/17 09:31:21;;;;;;;25.60;13.85;;;13.40;74.40;;;;;;5089842;28;20130;-64
2023/01/17 09:33:49;;;;;;;39.00;12.93;;;13.70;72.60;;;;;;5092812;28;20050;-66
2023/01/17 09:36:16;;;;;;;20.73;9.25;;;13.80;99.90;;;;;;5092190;28;20070;-66
2023/01/17 09:38:42;;;;;;;24.27;8.23;;;13.80;99.70;;;;;;5091776;28;20134;-66
2023/01/17 09:41:36;;;;;;;4.50;1.10;;;13.80;99.90;;;;;;5097307;28;20041;-65
2023/01/17 09:44:12;;;;;;;24.08;1.55;;;13.90;98.30;;;;;;5092441;28;20057;-64
2023/01/17 09:46:43;;;;;;;14.40;1.63;;;13.90;99.30;;;;;;5088729;28;20075;-63
2023/01/17 09:49:48;;;;;;;22.88;2.63;;;13.90;99.00;;;;;;5092737;28;20358;-64
2023/01/17 09:52:19;;;;;;;19.38;2.13;;;13.70;99.90;;;;;;5015525;28;20075;-66
2023/01/17 09:54:48;;;;;;;25.30;2.60;;;13.10;99.90;;;;;;5011738;28;20066;-65
2023/01/17 09:57:37;;;;;;;30.02;2.67;;;13.60;76.30;;;;;;5014696;28;20064;-66
2023/01/17 10:00:12;;;;;;;27.13;3.22;;;;;;;;;;5011626;28;20051;-67
2023/01/17 10:03:06;;;;;;;29.10;2.40;;;13.50;70.70;;;;;;5015008;28;20391;-66
2023/01/17 10:06:15;;;;;;;17.90;1.90;;;13.70;71.00;;;;;;5013081;28;20376;-66
2023/01/17 10:08:56;;;;;;;17.55;1.95;;;13.80;99.90;;;;;;5018270;28;20470;-65
2023/01/17 10:11:35;;;;;;;28.23;2.65;;;13.60;70.30;;;;;;5018722;28;20430;-67
2023/01/17 10:14:22;;;;;;;8.85;1.75;;;13.60;73.20;;;;;;5014434;28;20120;-66
2023/01/17 10:16:49;;;;;;;5.53;0.90;;;;;;;;;;5019102;28;20464;-68
2023/01/17 10:19:44;;;;;;;25.77;1.80;;;13.70;80.70;;;;;;5015125;28;20058;-65
2023/01/17 10:22:37;;;;;;;12.48;1.50;;;13.70;73.10;;;;;;5033115;28;20064;-64
2023/01/17 10:25:22;;;;;;;22.60;1.35;;;13.60;99.90;;;;;;5095820;28;20095;-66
2023/01/17 10:27:57;;;;;;;13.82;1.40;;;13.80;79.80;;;;;;5098213;28;20120;-65
2023/01/17 10:30:32;;;;;;;35.47;2.65;;;;;;;;;;5096439;28;20058;-68
2023/01/17 10:33:03;;;;;;;29.80;1.67;;;13.70;98.60;;;;;;5100733;28;20104;-65
2023/01/17 10:35:35;;;;;;;21.10;1.42;;;13.50;75.70;;;;;;5093144;28;20077;-64
2023/01/17 10:38:06;;;;;;;19.98;1.55;;;12.80;78.70;;;;;;5093719;28;20056;-67
2023/01/17 10:41:01;;;;;;;16.85;2.17;;;13.20;79.90;;;;;;5095389;28;20067;-66
2023/01/17 10:43:46;;;;;;;20.88;1.67;;;13.00;99.00;;;;;;5092196;28;20065;-66
2023/01/17 10:46:27;;;;;;;29.27;1.50;;;12.90;98.20;;;;;;5092304;28;20067;-66
2023/01/17 10:48:54;;;;;;;17.40;1.98;;;13.10;99.60;;;;;;5095294;28;20065;-64
2023/01/17 10:51:42;;;;;;;33.00;2.15;;;13.70;92.30;;;;;;5095067;28;20511;-63
2023/01/17 10:54:50;;;;;;;24.52;2.05;;;13.20;99.90;;;;;;5093584;28;20424;-66
2023/01/17 10:57:26;;;;;;;42.58;2.83;;;13.00;80.10;;;;;;5093514;28;20084;-66
2023/01/17 10:59:56;;;;;;;38.03;2.95;;;12.60;94.00;;;;;;5095587;28;20081;-66
2023/01/17 11:02:31;;;;;;;37.95;2.45;;;12.90;99.80;;;;;;5093411;28;20066;-65
2023/01/17 11:05:04;;;;;;;39.97;2.55;;;13.20;99.70;;;;;;5090348;28;20076;-64
2023/01/17 11:07:30;;;;;;;46.00;2.97;;;;;;;;;;5092630;28;20119;-68
2023/01/17 11:09:58;;;;;;;37.17;2.53;;;13.00;80.10;;;;;;5091896;28;20069;-64
2023/01/17 11:12:42;;;;;;;25.40;1.45;;;13.00;99.30;;;;;;5091257;28;20148;-63
2023/01/17 11:15:09;;;;;;;8.30;0.73;;;13.40;98.50;;;;;;5093175;28;20095;-65
2023/01/17 11:17:36;;;;;;;;;;;12.90;78.70;;;;;;5093563;28;20590;-65
2023/01/17 11:20:18;;;;;;;4.05;1.40;;;12.90;98.60;;;;;;5091832;28;19962;-65
2023/01/17 11:23:07;;;;;;;7.63;0.80;;;13.00;98.00;;;;;;5092245;28;20076;-65
2023/01/17 11:25:34;;;;;;;9.38;0.90;;;13.10;97.80;;;;;;5089046;28;20073;-65
2023/01/17 11:28:29;;;;;;;12.23;1.42;;;13.00;76.80;;;;;;5093865;28;20062;-66
2023/01/17 11:31:15;;;;;;;11.80;0.80;;;12.70;97.50;;;;;;5088580;28;20070;-62
2023/01/17 11:33:55;;;;;;;6.72;1.13;;;13.10;98.20;;;;;;5082784;28;20085;-68
2023/01/17 11:36:30;;;;;;;8.48;0.88;;;12.90;78.90;;;;;;5098020;28;20579;-69
2023/01/17 11:38:57;;;;;;;12.40;1.63;;;12.90;78.90;;;;;;5092968;28;20110;-66
2023/01/17 11:41:26;;;;;;;2.50;0.70;;;12.70;98.90;;;;;;5095406;28;20594;-66
2023/01/17 11:43:55;;;;;;;2.13;0.95;;;12.40;97.90;;;;;;5094033;28;20096;-67
2023/01/17 11:46:22;;;;;;;3.42;0.77;;;12.70;98.10;;;;;;5093014;28;20070;-65
2023/01/17 11:48:58;;;;;;;5.22;0.88;;;12.70;97.50;;;;;;5095139;28;20067;-64
2023/01/17 11:51:34;;;;;;;9.77;1.20;;;12.40;98.90;;;;;;5093224;28;20511;-64
2023/01/17 11:54:24;;;;;;;6.72;1.08;;;12.30;96.50;;;;;;5097661;28;20079;-65
2023/01/17 11:56:58;;;;;;;9.40;1.08;;;12.70;99.50;;;;;;5096578;28;20264;-65
2023/01/17 11:59:30;;;;;;;6.50;1.35;;;12.30;90.50;;;;;;5094635;28;20444;-65
2023/01/17 12:02:03;;;;;;;5.30;1.15;;;12.60;91.00;;;;;;5095007;28;20082;-66
2023/01/17 12:04:42;;;;;;;11.13;1.42;;;12.30;99.90;;;;;;5093305;28;20075;-65
2023/01/17 12:07:22;;;;;;;5.47;1.35;;;12.40;89.60;;;;;;5091406;28;20112;-66
2023/01/17 12:10:05;;;;;;;11.80;1.60;;;12.60;98.70;;;;;;5094816;28;20062;-63
2023/01/17 12:15:53;;;;;;;12.68;1.40;;;12.30;98.90;;;;;;5089659;28;20114;-64
2023/01/17 12:18:58;;;;;;;6.05;1.63;;;12.00;99.90;;;;;;5091137;28;20078;-65
2023/01/17 12:21:40;;;;;;;8.50;1.00;;;12.30;83.10;;;;;;5066570;28;20524;-66
2023/01/17 12:24:29;;;;;;;11.02;1.23;;;12.60;94.50;;;;;;5091351;28;20140;-64
2023/01/17 12:27:02;;;;;;;7.05;1.02;;;12.10;98.50;;;;;;5090487;28;20080;-68
2023/01/17 12:29:51;;;;;;;5.68;0.90;;;12.50;99.90;;;;;;5094813;28;20074;-65
2023/01/17 12:33:20;;;;;;;4.72;0.93;;;12.30;99.90;;;;;;5096064;28;20079;-65
2023/01/17 12:36:16;;;;;;;3.28;0.82;;;11.90;99.90;;;;;;5012923;28;20085;-65
2023/01/17 12:38:45;;;;;;;3.25;0.73;;;11.90;87.50;;;;;;5008377;28;20075;-67
2023/01/17 12:41:26;;;;;;;3.85;0.88;;;12.20;99.90;;;;;;5008573;28;20072;-65
2023/01/17 12:44:00;;;;;;;4.15;1.20;;;12.20;92.20;;;;;;5013415;28;20164;-66
2023/01/17 12:46:53;;;;;;;3.42;0.85;;;12.00;85.70;;;;;;5014092;28;20079;-68
2023/01/17 12:49:29;;;;;;;2.30;0.77;;;12.40;99.90;;;;;;5002204;28;20166;-64
2023/01/17 12:52:04;;;;;;;3.15;0.98;;;11.80;99.90;;;;;;5011051;28;20169;-66
2023/01/17 12:54:38;;;;;;;3.85;0.60;;;12.00;99.90;;;;;;5011987;28;20096;-65
2023/01/17 12:57:14;;;;;;;6.00;0.80;;;12.30;99.90;;;;;;5019285;28;20225;-66
2023/01/17 12:59:53;;;;;;;7.53;0.90;;;12.10;99.90;;;;;;5012978;28;20596;-65
2023/01/17 13:02:34;;;;;;;5.43;0.70;;;11.60;95.40;;;;;;5014950;28;20136;-65
2023/01/17 13:05:14;;;;;;;3.22;0.75;;;11.80;99.90;;;;;;5010842;28;20074;-67
2023/01/17 13:07:58;;;;;;;6.40;0.82;;;12.40;99.90;;;;;;5095558;28;20553;-66
2023/01/17 13:10:39;;;;;;;3.05;0.75;;;12.30;99.90;;;;;;5095079;28;20461;-65
2023/01/17 13:13:25;;;;;;;6.22;0.63;;;12.10;83.90;;;;;;5094191;28;20083;-66
2023/01/17 13:16:13;;;;;;;10.87;1.10;;;12.10;93.20;;;;;;5091080;28;20468;-65
2023/01/17 13:18:47;;;;;;;3.40;0.80;;;12.60;99.70;;;;;;5094637;28;20520;-71
2023/01/17 13:21:40;;;;;;;1.90;0.82;;;12.30;82.60;;;;;;5095083;28;20060;-64
2023/01/17 13:24:31;;;;;;;5.88;0.70;;;12.30;82.20;;;;;;5095286;28;20093;-68
2023/01/17 13:27:10;;;;;;;3.58;0.90;;;12.30;82.20;;;;;;5094757;28;20063;-69
2023/01/17 13:29:58;;;;;;;1.10;0.43;;;12.40;81.90;;;;;;5093696;28;20060;-69
2023/01/17 13:33:09;;;;;;;1.75;0.43;;;12.40;82.20;;;;;;5092471;28;20071;-66
2023/01/17 13:35:53;;;;;;;1.75;0.50;;;12.40;81.80;;;;;;5088541;28;20546;-65
2023/01/17 13:38:53;;;;;;;1.33;0.52;;;12.70;98.80;;;;;;5097540;28;20189;-66
2023/01/17 13:41:41;;;;;;;2.10;0.68;;;12.30;82.20;;;;;;5097348;28;20062;-67
2023/01/17 13:44:23;;;;;;;2.53;0.65;;;12.40;82.50;;;;;;5097670;28;20086;-65
2023/01/17 13:47:03;;;;;;;3.95;1.08;;;12.40;82.90;;;;;;5095821;28;20481;-66
2023/01/17 13:49:30;;;;;;;2.35;0.75;;;12.10;92.70;;;;;;5098052;28;20075;-67
2023/01/17 13:52:32;;;;;;;4.68;0.60;;;12.20;99.90;;;;;;5097396;28;20060;-68
2023/01/17 13:55:00;;;;;;;2.60;0.90;;;12.40;99.90;;;;;;5015129;28;20107;-66
2023/01/17 13:57:34;;;;;;;3.92;0.73;;;12.70;99.90;;;;;;5013220;28;20088;-65
2023/01/17 14:00:20;;;;;;;2.83;0.57;;;12.30;96.90;;;;;;5014767;28;20078;-67
2023/01/17 14:02:51;;;;;;;4.35;1.10;;;12.40;99.90;;;;;;5017000;28;20060;-67
2023/01/17 14:05:41;;;;;;;4.60;1.02;;;12.20;83.80;;;;;;5015192;28;20079;-65
2023/01/17 14:08:17;;;;;;;3.70;0.90;;;12.20;84.40;;;;;;5016331;28;20073;-66
2023/01/17 14:10:49;;;;;;;3.33;0.80;;;12.10;84.70;;;;;;5013767;28;20646;-66
2023/01/17 14:13:44;;;;;;;1.60;0.70;;;11.90;99.90;;;;;;5018236;28;20093;-66
2023/01/17 14:16:28;;;;;;;4.07;0.90;;;12.80;99.90;;;;;;5010520;28;20130;-65
2023/01/17 14:18:55;;;;;;;2.30;0.70;;;12.30;99.90;;;;;;5013357;28;20082;-64
2023/01/17 14:21:25;;;;;;;2.78;0.80;;;11.90;99.90;;;;;;5017044;28;20089;-64
2023/01/17 14:24:09;;;;;;;5.25;1.20;;;12.50;99.90;;;;;;5018406;28;20073;-64
2023/01/17 14:26:42;;;;;;;7.68;0.90;;;11.70;99.90;;;;;;5016774;28;20078;-65
2023/01/17 14:29:42;;;;;;;2.35;0.80;;;12.10;84.30;;;;;;4999529;28;20142;-67
2023/01/17 14:32:15;;;;;;;1.75;0.98;;;12.40;99.90;;;;;;5079891;28;20109;-65
2023/01/17 14:34:48;;;;;;;1.52;1.10;;;11.90;99.90;;;;;;5100620;28;20081;-63
2023/01/17 14:37:17;;;;;;;2.45;0.93;;;12.20;99.90;;;;;;5094671;27;20081;-66
2023/01/17 14:39:49;;;;;;;1.70;1.33;;;12.30;85.20;;;;;;5095776;28;20064;-69
2023/01/17 14:42:19;;;;;;;5.05;1.23;;;12.40;85.10;;;;;;5094866;28;20068;-69
2023/01/17 14:45:02;;;;;;;4.05;1.35;;;12.50;99.90;;;;;;5092265;28;20067;-63
2023/01/17 14:47:38;;;;;;;6.43;1.20;;;12.40;99.90;;;;;;5094359;28;20568;-66
2023/01/17 14:50:18;;;;;;;4.63;1.10;;;12.50;95.80;;;;;;5096545;28;20085;-66
2023/01/17 14:52:45;;;;;;;4.50;1.17;;;12.50;98.90;;;;;;5093644;28;20079;-67
2023/01/17 14:55:19;;;;;;;3.58;1.08;;;12.50;85.20;;;;;;5093533;28;20081;-64
2023/01/17 14:57:55;;;;;;;4.45;1.33;;;12.40;99.90;;;;;;5095453;28;20074;-67
2023/01/17 15:00:24;;;;;;;4.93;0.80;;;12.70;92.70;;;;;;5094816;28;20085;-66
2023/01/17 15:02:52;;;;;;;4.60;1.00;;;12.60;87.90;;;;;;5092915;28;20063;-65
2023/01/17 15:05:21;;;;;;;1.75;0.75;;;12.50;99.90;;;;;;5094236;28;20489;-64
2023/01/17 15:07:51;;;;;;;3.70;0.90;;;12.60;84.60;;;;;;5095198;28;20110;-63
2023/01/17 15:10:32;;;;;;;4.57;0.88;;;13.00;99.90;;;;;;5095788;28;20531;-64
2023/01/17 15:13:08;;;;;;;2.58;0.70;;;12.70;96.90;;;;;;5095287;28;20075;-64
2023/01/17 15:15:41;;;;;;;4.35;1.00;;;12.40;99.90;;;;;;5093101;28;20105;-65
2023/01/17 15:18:13;;;;;;;5.00;0.80;;;12.60;84.40;;;;;;5095519;28;20080;-68
2023/01/17 15:20:42;;;;;;;1.23;0.50;;;12.30;99.90;;;;;;5090950;28;20074;-63
2023/01/17 15:23:21;;;;;;;3.85;0.80;;;12.80;99.90;;;;;;5093952;28;20060;-66
2023/01/17 15:25:50;;;;;;;4.20;0.93;;;12.50;99.80;;;;;;5095577;28;20070;-66
2023/01/17 15:28:17;;;;;;;5.70;0.90;;;12.60;84.30;;;;;;5095213;28;20095;-65
2023/01/17 15:31:06;;;;;;;8.70;2.13;;;12.60;99.90;;;;;;5090037;28;20086;-65
2023/01/17 15:33:34;;;;;;;3.75;1.20;;;12.70;84.00;;;;;;5095359;28;20059;-66
2023/01/17 15:36:03;;;;;;;6.68;1.10;;;12.60;99.90;;;;;;5094172;28;20089;-65
2023/01/17 15:38:30;;;;;;;3.50;1.05;;;12.90;99.90;;;;;;5095185;28;20124;-63
2023/01/17 15:41:13;;;;;;;5.22;0.75;;;12.70;99.90;;;;;;5095652;28;20466;-64
2023/01/17 15:43:41;;;;;;;1.60;0.70;;;12.80;83.20;;;;;;5089622;28;20073;-65
2023/01/17 15:46:21;;;;;;;3.13;0.73;;;12.60;99.90;;;;;;5092592;28;20065;-65
2023/01/17 15:48:50;;;;;;;9.90;1.13;;;12.80;99.90;;;;;;5092531;28;20071;-64
2023/01/17 15:51:35;;;;;;;4.47;1.02;;;13.10;99.90;;;;;;5095567;28;20095;-66
2023/01/17 15:54:39;;;;;;;5.18;0.85;;;13.50;99.90;;;;;;5097009;28;20093;-64
2023/01/17 15:57:18;;;;;;;5.45;0.80;;;13.60;99.90;;;;;;5100611;28;20131;-63
2023/01/17 15:59:56;;;;;;;6.15;1.10;;;13.10;99.90;;;;;;5098267;28;20114;-64
2023/01/17 16:02:34;;;;;;;2.88;0.77;;;13.20;80.80;;;;;;5107522;28;20064;-63
2023/01/17 16:05:29;;;;;;;6.45;0.90;;;13.50;95.40;;;;;;5097706;28;20074;-64
2023/01/17 16:08:03;;;;;;;4.63;1.23;;;13.40;98.30;;;;;;5087297;28;20089;-64
2023/01/17 16:10:35;;;;;;;7.50;1.10;;;13.60;98.60;;;;;;5099232;28;20063;-63
2023/01/17 16:13:03;;;;;;;8.52;1.40;;;13.70;98.20;;;;;;5092748;28;20047;-64
2023/01/17 16:15:30;;;;;;;7.82;1.23;;;13.40;90.20;;;;;;5097923;28;20292;-67
2023/01/17 16:18:21;;;;;;;4.10;0.95;;;13.60;98.20;;;;;;5097733;28;20053;-64
2023/01/17 16:21:00;;;;;;;8.05;0.90;;;13.80;78.40;;;;;;5094094;28;20045;-70
2023/01/17 16:23:27;;;;;;;5.10;1.27;;;13.90;81.40;;;;;;5088955;28;20073;-64
2023/01/17 16:25:54;;;;;;;7.05;1.05;;;13.90;98.10;;;;;;5093916;28;20071;-62
2023/01/17 16:28:20;;;;;;;;;;;14.00;78.30;;;;;;5102825;28;20069;-65
2023/01/17 16:30:47;;;;;;;5.80;1.30;;;14.10;77.40;;;;;;5097207;28;20000;-67
2023/01/17 16:33:14;;;;;;;4.25;1.60;;;14.50;98.60;;;;;;5093392;28;20078;-65
2023/01/17 16:35:41;;;;;;;8.07;1.23;;;14.50;98.30;;;;;;5100542;28;20084;-66
2023/01/17 16:38:12;;;;;;;10.57;6.50;;;14.60;98.40;;;;;;5096527;28;20077;-66
2023/01/17 16:40:44;;;;;;;23.13;10.95;;;14.90;97.90;;;;;;5102826;28;20053;-64
2023/01/17 16:43:13;;;;;;;9.45;1.45;;;14.80;75.50;;;;;;5095420;28;20508;-65
2023/01/17 16:45:41;;;;;;;9.60;1.55;;;15.00;97.80;;;;;;5098158;28;21253;-64
2023/01/17 16:48:10;;;;;;;5.45;1.42;;;15.10;98.00;;;;;;5097581;28;20064;-65
2023/01/17 16:50:41;;;;;;;8.65;1.40;;;15.20;97.00;;;;;;5099818;28;20054;-66
2023/01/17 16:53:07;;;;;;;11.13;1.58;;;15.30;96.50;;;;;;5099039;28;20163;-64
2023/01/17 16:55:33;;;;;;;5.40;1.00;;;15.30;94.80;;;;;;5098561;28;20059;-65
2023/01/17 16:58:00;;;;;;;4.80;1.08;;;;;;;;;;5092222;28;20047;-65
2023/01/17 17:00:26;;;;;;;7.47;1.50;;;15.80;82.70;;;;;;5101275;28;20054;-64
2023/01/17 17:02:53;;;;;;;9.68;1.10;;;16.00;69.50;;;;;;5089670;28;20052;-64
2023/01/17 17:05:19;;;;;;;3.47;1.15;;;16.20;93.50;;;;;;5090198;28;20056;-64
2023/01/17 17:07:46;;;;;;;7.30;1.52;;;16.00;96.30;;;;;;5101848;28;20055;-65
2023/01/17 17:10:16;;;;;;;5.45;0.82;;;16.00;96.40;;;;;;5095186;28;20052;-64
2023/01/17 17:12:42;;;;;;;8.90;1.20;;;16.40;95.80;;;;;;5106552;28;20047;-63
2023/01/17 17:15:10;;;;;;;6.90;1.33;;;16.20;95.40;;;;;;5096069;28;20085;-64
2023/01/17 17:17:39;;;;;;;7.25;0.95;;;16.00;94.90;;;;;;5088846;28;20053;-62
2023/01/17 17:20:10;;;;;;;9.55;0.90;;;16.30;67.30;;;;;;5103095;28;20136;-65
2023/01/17 17:22:36;;;;;;;6.10;1.20;;;16.50;93.80;;;;;;5096446;28;20037;-64
2023/01/17 17:25:04;;;;;;;2.72;0.90;;;16.60;93.60;;;;;;5093268;28;20408;-64
2023/01/17 17:27:31;;;;;;;7.97;1.20;;;17.10;73.70;;;;;;5103064;28;20385;-64
2023/01/17 17:29:57;;;;;;;5.82;1.00;;;16.80;80.30;;;;;;5096463;28;20651;-65
2023/01/17 17:32:23;;;;;;;5.55;0.95;;;16.70;93.30;;;;;;5095431;28;20054;-62
2023/01/17 17:34:50;;;;;;;3.15;0.93;;;;;;;;;;5092849;28;20091;-64
2023/01/17 17:37:16;;;;;;;5.20;1.10;;;16.90;93.80;;;;;;5089877;28;20049;-64
2023/01/17 17:39:44;;;;;;;5.38;0.82;;;17.90;87.00;;;;;;5098121;28;20038;-66
2023/01/17 17:42:11;;;;;;;5.10;0.95;;;17.10;64.30;;;;;;5089142;28;20039;-65
2023/01/17 17:44:37;;;;;;;4.97;0.90;;;17.30;94.10;;;;;;5095582;28;20410;-64
2023/01/17 17:47:04;;;;;;;6.75;1.40;;;;;;;;;;5095793;28;20108;-67
2023/01/17 17:49:30;;;;;;;7.32;0.93;;;17.50;62.70;;;;;;5099312;28;20064;-62
2023/01/17 17:52:03;;;;;;;4.00;0.85;;;18.50;93.50;;;;;;5104590;28;20071;-64
2023/01/17 17:54:30;;;;;;;4.18;0.98;;;18.20;91.50;;;;;;5098799;28;20516;-65
2023/01/17 17:56:56;;;;;;;3.17;0.82;;;18.30;91.80;;;;;;5094548;28;20123;-65
2023/01/17 17:59:23;;;;;;;4.78;1.02;;;;;;;;;;5096563;28;20085;-66
2023/01/17 18:01:49;;;;;;;4.90;0.80;;;18.70;88.10;;;;;;5092020;28;20048;-65
2023/01/17 18:04:17;;;;;;;5.90;1.00;;;18.60;92.90;;;;;;5091796;28;20503;-66
2023/01/17 18:06:43;;;;;;;5.93;1.05;;;;;;;;;;5095578;28;20061;-66
2023/01/17 18:09:11;;;;;;;6.80;0.93;;;18.30;57.50;;;;;;5095778;28;20059;-69
2023/01/17 18:11:40;;;;;;;5.50;0.90;;;17.80;88.60;;;;;;5094596;28;20565;-65
2023/01/17 18:14:08;;;;;;;7.70;1.00;;;18.70;56.30;;;;;;5095149;28;20464;-69
2023/01/17 18:16:40;;;;;;;3.17;1.45;;;19.00;96.00;;;;;;5094468;28;20126;-67
2023/01/17 18:19:11;;;;;;;3.42;1.10;;;18.90;82.10;;;;;;5089656;28;20056;-65
2023/01/17 18:21:38;;;;;;;2.42;1.00;;;18.90;83.50;;;;;;5094748;28;20154;-66
2023/01/17 18:24:10;;;;;;;6.15;1.25;;;19.90;94.20;;;;;;5091874;28;20094;-65
2023/01/17 18:26:48;;;;;;;5.13;1.20;;;18.70;78.20;;;;;;5095808;28;20040;-68
2023/01/17 18:29:16;;;;;;;2.92;0.80;;;19.80;78.10;;;;;;5097138;28;20438;-67
2023/01/17 18:31:44;;;;;;;4.63;0.90;;;19.30;54.10;;;;;;5098570;28;20047;-66
2023/01/17 18:34:16;;;;;;;6.75;2.55;;;19.10;76.80;;;;;;5102011;28;20714;-65
2023/01/17 18:36:43;;;;;;;2.45;0.73;;;19.10;78.10;;;;;;5095975;28;20064;-68
2023/01/17 18:39:15;;;;;;;34.92;2.63;;;19.30;76.80;;;;;;5105691;28;20053;-69
2023/01/17 18:41:43;;;;;;;8.93;1.10;;;20.10;77.00;;;;;;5094266;28;20061;-67
2023/01/17 18:44:10;;;;;;;19.83;1.10;;;20.20;76.70;;;;;;5095246;28;20503;-66